createdAt,value
2018-07-25T00:04:12.734Z,22.50
2018-07-25T00:09:14.914Z,22.60
2018-07-25T00:14:17.077Z,22.60
2018-07-25T00:19:19.237Z,22.40
2018-07-25T00:24:21.370Z,22.30
2018-07-25T00:29:23.497Z,22.30
2018-07-25T00:34:25.638Z,22.10
2018-07-25T00:39:27.789Z,22.10
2018-07-25T00:44:29.905Z,22.00
2018-07-25T00:49:32.024Z,21.90
2018-07-25T00:54:34.153Z,21.90
2018-07-25T00:59:36.278Z,22.00
2018-07-25T01:04:38.400Z,22.00
2018-07-25T01:09:40.578Z,22.00
2018-07-25T01:14:42.753Z,21.80
2018-07-25T01:19:44.921Z,21.70
2018-07-25T01:24:47.049Z,21.60
2018-07-25T01:29:49.174Z,21.30
2018-07-25T01:34:51.709Z,21.00
2018-07-25T01:39:53.859Z,21.30
2018-07-25T01:44:56.002Z,21.40
2018-07-25T01:49:58.156Z,21.30
2018-07-25T01:55:00.309Z,21.20
2018-07-25T02:00:02.474Z,21.10
2018-07-25T02:05:05.216Z,21.20
2018-07-25T02:10:07.349Z,21.00
2018-07-25T02:15:09.478Z,20.90
2018-07-25T02:20:11.629Z,20.70
2018-07-25T02:25:13.786Z,20.70
2018-07-25T02:30:15.948Z,20.80
2018-07-25T02:35:18.075Z,20.80
2018-07-25T02:40:20.240Z,20.70
2018-07-25T02:45:22.393Z,20.50
2018-07-25T02:50:24.553Z,20.40
2018-07-25T02:55:26.670Z,20.40
2018-07-25T03:00:28.794Z,20.20
2018-07-25T03:05:30.938Z,20.00
2018-07-25T03:10:33.057Z,20.20
2018-07-25T03:15:36.027Z,20.20
2018-07-25T03:20:38.174Z,20.10
2018-07-25T03:25:40.330Z,20.00
2018-07-25T03:30:42.496Z,20.10
2018-07-25T03:35:44.670Z,20.00
2018-07-25T03:40:47.369Z,20.00
2018-07-25T03:45:49.530Z,19.90
2018-07-25T03:50:51.681Z,19.90
2018-07-25T03:55:53.866Z,19.90
2018-07-25T04:00:56.014Z,19.80
2018-07-25T04:05:58.169Z,19.70
2018-07-25T04:11:00.330Z,19.80
2018-07-25T04:16:02.489Z,19.90
2018-07-25T04:21:04.642Z,20.00
2018-07-25T04:26:06.853Z,20.10
2018-07-25T04:31:08.997Z,20.10
2018-07-25T04:36:11.132Z,20.10
2018-07-25T04:41:13.321Z,19.90
2018-07-25T04:46:15.540Z,20.00
2018-07-25T04:51:17.616Z,20.30
2018-07-25T04:56:19.757Z,20.40
2018-07-25T05:01:21.907Z,20.80
2018-07-25T05:06:24.043Z,21.10
2018-07-25T05:11:26.193Z,21.30
2018-07-25T05:16:28.356Z,21.50
2018-07-25T05:21:30.527Z,21.70
2018-07-25T05:26:32.674Z,22.00
2018-07-25T05:31:34.847Z,22.30
2018-07-25T05:36:37.029Z,22.50
2018-07-25T05:41:39.805Z,22.90
2018-07-25T05:46:41.967Z,23.10
2018-07-25T05:51:44.154Z,23.30
2018-07-25T05:56:46.314Z,23.70
2018-07-25T06:01:48.478Z,24.00
2018-07-25T06:06:50.673Z,24.30
2018-07-25T06:11:52.833Z,24.70
2018-07-25T06:16:55.011Z,25.10
2018-07-25T06:21:57.197Z,25.20
2018-07-25T06:26:59.357Z,25.30
2018-07-25T06:32:01.521Z,25.70
2018-07-25T06:37:03.707Z,26.00
2018-07-25T06:42:05.909Z,26.40
2018-07-25T06:47:08.053Z,26.50
2018-07-25T06:52:10.217Z,26.90
2018-07-25T06:57:12.380Z,27.10
2018-07-25T07:02:14.571Z,27.40
2018-07-25T07:07:16.741Z,27.50
2018-07-25T07:12:18.901Z,28.00
2018-07-25T07:17:21.103Z,28.20
2018-07-25T07:22:23.237Z,28.20
2018-07-25T07:27:25.390Z,28.30
2018-07-25T07:32:27.553Z,28.70
2018-07-25T07:37:29.785Z,28.80
2018-07-25T07:42:31.888Z,29.20
2018-07-25T07:47:34.079Z,29.20
2018-07-25T07:52:36.266Z,29.60
2018-07-25T07:57:38.440Z,30.10
2018-07-25T08:02:40.621Z,30.20
2018-07-25T08:07:42.799Z,30.10
2018-07-25T08:12:44.989Z,29.70
2018-07-25T08:17:47.257Z,30.50
2018-07-25T08:22:49.334Z,31.20
2018-07-25T08:27:51.483Z,31.10
2018-07-25T08:32:53.666Z,31.50
2018-07-25T08:37:55.843Z,32.20
2018-07-25T08:42:57.977Z,32.40
2018-07-25T08:48:00.136Z,32.60
2018-07-25T08:53:02.290Z,32.70
2018-07-25T08:58:04.468Z,32.60
2018-07-25T09:03:06.638Z,32.60
2018-07-25T09:08:09.161Z,33.20
2018-07-25T09:13:11.395Z,33.20
2018-07-25T09:18:13.473Z,33.60
2018-07-25T09:23:15.610Z,33.90
2018-07-25T09:28:17.741Z,33.90
2018-07-25T09:33:19.942Z,33.80
2018-07-25T09:38:22.126Z,33.90
2018-07-25T09:43:24.357Z,34.40
2018-07-25T09:48:26.561Z,34.40
2018-07-25T09:53:28.765Z,34.60
2018-07-25T09:58:30.897Z,35.10
2018-07-25T10:03:33.049Z,35.10
2018-07-25T10:08:35.191Z,35.40
2018-07-25T10:13:37.357Z,35.20
2018-07-25T10:18:39.506Z,34.70
2018-07-25T10:23:41.794Z,34.40
2018-07-25T10:28:43.944Z,35.20
2018-07-25T10:33:46.087Z,34.20
2018-07-25T10:38:48.262Z,34.00
2018-07-25T10:43:50.427Z,33.50
2018-07-25T10:48:52.684Z,32.90
2018-07-25T10:53:54.835Z,32.50
2018-07-25T10:58:57.011Z,32.50
2018-07-25T11:03:59.182Z,32.40
2018-07-25T11:09:01.378Z,32.20
2018-07-25T11:14:03.555Z,32.10
2018-07-25T11:19:05.715Z,32.30
2018-07-25T11:24:07.878Z,32.20
2018-07-25T11:29:10.016Z,33.00
2018-07-25T11:34:12.197Z,32.90
2018-07-25T11:39:14.350Z,33.00
2018-07-25T11:44:16.487Z,33.30
2018-07-25T11:49:18.675Z,33.40
2018-07-25T11:54:20.838Z,33.90
2018-07-25T11:59:22.977Z,34.30
2018-07-25T12:04:25.134Z,34.60
2018-07-25T12:09:27.288Z,34.80
2018-07-25T12:14:29.477Z,34.60
2018-07-25T12:19:31.637Z,34.70
2018-07-25T12:24:33.826Z,35.10
2018-07-25T12:29:35.993Z,35.00
2018-07-25T12:34:38.151Z,35.50
2018-07-25T12:39:40.333Z,35.30
2018-07-25T12:44:42.546Z,34.90
2018-07-25T12:49:44.709Z,35.10
2018-07-25T12:54:46.869Z,35.00
2018-07-25T12:59:49.038Z,34.70
2018-07-25T13:04:51.213Z,34.70
2018-07-25T13:09:53.394Z,34.10
2018-07-25T13:14:55.594Z,34.30
2018-07-25T13:19:57.738Z,34.20
2018-07-25T13:24:59.913Z,33.80
2018-07-25T13:30:02.114Z,33.70
2018-07-25T13:35:04.341Z,33.70
2018-07-25T13:40:06.614Z,33.60
2018-07-25T13:45:08.798Z,34.00
2018-07-25T13:50:10.999Z,33.70
2018-07-25T13:55:13.165Z,34.40
2018-07-25T14:00:15.366Z,34.10
2018-07-25T14:05:17.573Z,33.80
2018-07-25T14:10:19.731Z,33.60
2018-07-25T14:15:22.385Z,33.70
2018-07-25T14:20:24.548Z,33.80
2018-07-25T14:25:26.734Z,34.20
2018-07-25T14:30:29.036Z,34.70
2018-07-25T14:35:31.051Z,34.90
2018-07-25T14:40:33.227Z,35.00
2018-07-25T14:45:35.343Z,35.20
2018-07-25T14:50:37.473Z,35.00
2018-07-25T14:55:39.640Z,35.00
2018-07-25T15:00:41.789Z,35.00
2018-07-25T15:05:43.933Z,34.90
2018-07-25T15:10:46.094Z,34.90
2018-07-25T15:15:48.269Z,34.90
2018-07-25T15:20:50.405Z,34.90
2018-07-25T15:25:52.573Z,34.60
2018-07-25T15:30:54.749Z,34.60
2018-07-25T15:35:56.925Z,34.60
2018-07-25T15:40:59.093Z,34.70
2018-07-25T15:46:01.264Z,34.60
2018-07-25T15:51:03.450Z,34.60
2018-07-25T15:56:05.711Z,34.60
2018-07-25T16:01:07.982Z,34.60
2018-07-25T16:06:10.139Z,34.70
2018-07-25T16:11:12.593Z,34.60
2018-07-25T16:16:14.805Z,34.70
2018-07-25T16:21:17.367Z,34.70
2018-07-25T16:26:19.553Z,34.80
2018-07-25T16:31:21.758Z,34.20
2018-07-25T16:36:23.942Z,33.70
2018-07-25T16:41:26.142Z,32.90
2018-07-25T16:46:28.338Z,32.60
2018-07-25T16:51:30.513Z,32.60
2018-07-25T16:56:32.751Z,32.30
2018-07-25T17:01:34.826Z,32.40
2018-07-25T17:06:36.989Z,32.20
2018-07-25T17:11:39.270Z,32.10
2018-07-25T17:16:41.448Z,32.20
2018-07-25T17:21:43.613Z,32.20
2018-07-25T17:26:45.762Z,32.30
2018-07-25T17:31:47.930Z,32.20
2018-07-25T17:36:50.073Z,32.20
2018-07-25T17:41:52.217Z,32.00
2018-07-25T17:46:54.364Z,31.90
2018-07-25T17:51:56.701Z,31.50
2018-07-25T17:56:58.928Z,31.00
2018-07-25T18:02:01.036Z,31.10
2018-07-25T18:07:03.197Z,31.20
2018-07-25T18:12:05.357Z,31.30
2018-07-25T18:17:07.555Z,31.20
2018-07-25T18:22:09.682Z,31.00
2018-07-25T18:27:11.805Z,30.50
2018-07-25T18:32:13.982Z,30.40
2018-07-25T18:37:16.128Z,30.30
2018-07-25T18:42:18.313Z,30.20
2018-07-25T18:47:20.495Z,29.90
2018-07-25T18:52:22.677Z,29.90
2018-07-25T18:57:24.853Z,29.80
2018-07-25T19:02:27.006Z,29.60
2018-07-25T19:07:29.262Z,29.60
2018-07-25T19:12:31.326Z,29.50
2018-07-25T19:17:33.473Z,29.30
2018-07-25T19:22:35.669Z,29.30
2018-07-25T19:27:37.830Z,29.20
2018-07-25T19:32:39.988Z,29.10
2018-07-25T19:37:42.281Z,28.90
2018-07-25T19:42:44.442Z,28.70
2018-07-25T19:47:46.597Z,28.40
2018-07-25T19:52:48.764Z,28.30
2018-07-25T19:57:50.941Z,28.00
2018-07-25T20:02:53.223Z,27.80
2018-07-25T20:07:55.382Z,27.70
2018-07-25T20:12:57.602Z,27.60
2018-07-25T20:17:59.815Z,27.50
2018-07-25T20:23:01.940Z,27.30
2018-07-25T20:28:04.330Z,27.30
2018-07-25T20:33:06.461Z,27.30
2018-07-25T20:38:08.643Z,27.30
2018-07-25T20:43:10.783Z,27.20
2018-07-25T20:48:12.918Z,27.40
2018-07-25T20:53:15.053Z,27.60
2018-07-25T20:58:17.216Z,27.80
2018-07-25T21:03:19.367Z,27.80
2018-07-25T21:08:22.296Z,27.70
2018-07-25T21:13:24.442Z,27.80
2018-07-25T21:18:26.582Z,28.00
2018-07-25T21:23:28.794Z,28.00
2018-07-25T21:28:30.913Z,27.80
2018-07-25T21:33:33.060Z,27.80
2018-07-25T21:38:35.193Z,27.80
2018-07-25T21:43:37.337Z,27.70
2018-07-25T21:48:39.469Z,27.50
2018-07-25T21:53:41.617Z,27.60
2018-07-25T21:58:43.744Z,27.50
2018-07-25T22:03:46.088Z,27.40
2018-07-25T22:08:48.248Z,27.30
2018-07-25T22:13:54.947Z,27.20
2018-07-25T22:18:57.077Z,27.10
2018-07-25T22:23:59.233Z,27.00
2018-07-25T22:29:01.414Z,26.90
2018-07-25T22:34:03.564Z,26.80
2018-07-25T22:39:07.461Z,26.70
2018-07-25T22:44:10.457Z,26.60
2018-07-25T22:49:12.597Z,26.50
2018-07-25T22:54:14.741Z,26.40
2018-07-25T22:59:16.882Z,26.30
2018-07-25T23:04:19.086Z,26.30
2018-07-25T23:09:21.228Z,26.20
2018-07-25T23:14:23.396Z,26.20
2018-07-25T23:19:25.721Z,26.10
2018-07-25T23:24:27.875Z,26.10
2018-07-25T23:29:30.073Z,26.10
2018-07-25T23:34:32.168Z,26.00
2018-07-25T23:39:34.297Z,26.00
2018-07-25T23:44:36.429Z,25.90
2018-07-25T23:49:38.562Z,25.90
2018-07-25T23:54:40.705Z,25.80
2018-07-25T23:59:42.834Z,25.80
